メインページ
METAR-TAF:

METAR-TAF

空港 :

バマコ・セヌー国際空港

バマコ, マリ共和国

緯度: 12-32N, 経度: 007-57W, 海抜: 380m

現時点の気象観測

当レポートは52分前の22:00(UTC)に作成
東/北東の風 7kt
気温 24°C
湿度 27%
気圧 1016 hPa
視程10km以上
1,500メートル以下は雲なし、積乱雲なし

METAR: GABS 112200Z 07007KT CAVOK 24/04 Q1016 NOSIG

時間: 22:52 (22:52 UTC)

予報

当レポートは5時間52分前の17:00(UTC)に作成
予報は11日の 18時(UTC)から 12日の 24時(UTC)まで有効
の風 10kt、最大20ktの突風を伴う
視程10km以上
1,500メートル以下は雲なし、積乱雲なし

TAF: GABS 111700Z 1118/1224 08010G20KT CAVOK

4,000以上の空港の気象観測と天気予報(METAR報とTAF報)

利用可能な観測所は地図上に黄色い丸と赤い丸で示す。

丸の上にカーソルを重ねると観測所名を参照できる。

次にクリックすると気象観測と天気予報を参照できる。

マップの切り替え:黒色「×」印の緑ボタンをクリックして拡大、「-」印の緑ボタンをクリックして縮小、緑色の三角印をクリックして隣りの地図に切り替え


METAR-TAF: